Time;durP1;ratioP1;P1;durP2;ratioP2;P2;SDS_P1;SDS_P2;PMS_P1;PMS_P2;Temp;Humidity;BMP_temperature;BMP_pressure;BME280_temperature;BME280_humidity;BME280_pressure;Samples;Min_cycle;Max_cycle;Signal;HPM_P1;HPM_P2
2022/01/16 00:06:09;;;;;;;7.07;5.32;;;;;;;;;;5010883;28;20190;-58
2022/01/16 00:08:34;;;;;;;4.05;3.13;;;;;;;;;;4993786;28;20187;-58
2022/01/16 00:11:00;;;;;;;10.40;7.05;;;;;;;;;;4994637;28;20346;-58
2022/01/16 00:13:25;;;;;;;3.88;3.25;;;;;;;;;;4981736;28;20184;-58
2022/01/16 00:15:50;;;;;;;3.85;3.47;;;;;;;;;;4992640;28;20211;-58
2022/01/16 00:18:25;;;;;;;3.58;3.05;;;;;;;;;;4997401;28;20636;-58
2022/01/16 00:20:50;;;;;;;3.78;3.10;;;;;;;;;;5002344;28;20194;-58
2022/01/16 00:23:24;;;;;;;4.63;3.35;;;;;;;;;;5009984;28;20680;-58
2022/01/16 00:25:50;;;;;;;3.47;3.17;;;;;;;;;;5006600;28;20236;-58
2022/01/16 00:28:16;;;;;;;3.10;2.75;;;;;;;;;;5005691;28;20195;-58
2022/01/16 00:30:41;;;;;;;4.03;3.60;;;;;;;;;;4987452;28;20188;-58
2022/01/16 00:33:06;;;;;;;5.68;3.70;;;;;;;;;;4980615;28;20191;-58
2022/01/16 00:35:31;;;;;;;3.50;3.20;;;;;;;;;;4982623;28;20222;-57
2022/01/16 00:37:57;;;;;;;6.22;3.50;;;;;;;;;;4996702;28;20647;-58
2022/01/16 00:40:23;;;;;;;6.07;3.45;;;;;;;;;;5001420;28;20175;-58
2022/01/16 00:42:49;;;;;;;3.92;3.53;;;;;;;;;;4999868;28;20637;-58
2022/01/16 00:45:14;;;;;;;5.15;3.22;;;;;;;;;;4994521;28;20282;-58
2022/01/16 00:47:39;;;;;;;3.75;2.83;;;;;;;;;;4990294;28;20314;-58
2022/01/16 00:50:05;;;;;;;4.25;3.05;;;;;;;;;;5001423;28;20357;-58
2022/01/16 00:52:30;;;;;;;3.42;2.70;;;;;;;;;;4999941;28;20654;-58
2022/01/16 00:54:58;;;;;;;3.88;3.08;;;;;;;;;;5000093;28;20182;-58
2022/01/16 00:57:24;;;;;;;4.65;3.33;;;;;;;;;;5001137;28;20207;-58
2022/01/16 00:59:49;;;;;;;2.80;2.60;;;;;;;;;;5004908;28;20186;-58
2022/01/16 01:02:14;;;;;;;2.97;2.78;;;;;;;;;;4996985;28;20573;-57
2022/01/16 01:04:41;;;;;;;4.10;2.72;;;;;;;;;;5006999;28;20227;-56
2022/01/16 01:07:07;;;;;;;4.38;3.28;;;;;;;;;;5002730;28;20215;-56
2022/01/16 01:09:32;;;;;;;3.70;3.30;;;;;;;;;;4995842;28;20264;-58
2022/01/16 01:11:57;;;;;;;3.97;2.85;;;;;;;;;;4995478;28;20214;-56
2022/01/16 01:14:39;;;;;;;5.18;3.90;;;;;;;;;;4979008;28;20176;-56
2022/01/16 01:17:04;;;;;;;4.82;2.83;;;;;;;;;;5000237;28;20260;-57
2022/01/16 01:19:33;;;;;;;4.05;2.80;;;;;;;;;;5008171;28;20179;-57
2022/01/16 01:21:59;;;;;;;3.28;2.97;;;;;;;;;;5000635;28;20179;-56
2022/01/16 01:24:25;;;;;;;4.20;2.92;;;;;;;;;;5004067;28;20199;-56
2022/01/16 01:27:07;;;;;;;4.10;2.95;;;;;;;;;;5003843;28;20627;-57
2022/01/16 01:29:32;;;;;;;3.08;2.78;;;;;;;;;;4989597;28;20611;-57
2022/01/16 01:31:58;;;;;;;2.95;2.60;;;;;;;;;;4992171;28;20185;-57
2022/01/16 01:34:24;;;;;;;3.28;2.60;;;;;;;;;;4980630;28;20179;-57
2022/01/16 01:36:50;;;;;;;5.53;2.70;;;;;;;;;;4979404;28;20950;-57
2022/01/16 01:39:17;;;;;;;4.75;3.10;;;;;;;;;;5003565;28;20186;-57
2022/01/16 01:41:43;;;;;;;3.60;3.10;;;;;;;;;;5004819;28;20732;-57
2022/01/16 01:52:20;;;;;;;4.30;2.83;;;;;;;;;;4995683;28;20183;-57
2022/01/16 01:54:46;;;;;;;3.38;2.70;;;;;;;;;;4995946;28;20393;-57
2022/01/16 01:57:11;;;;;;;3.03;2.65;;;;;;;;;;4998132;28;20898;-57
2022/01/16 01:59:39;;;;;;;4.05;2.55;;;;;;;;;;5000108;28;20183;-57
2022/01/16 02:02:05;;;;;;;3.60;2.85;;;;;;;;;;5000623;28;20579;-57
2022/01/16 02:04:30;;;;;;;3.70;3.00;;;;;;;;;;4991696;28;20179;-57
2022/01/16 02:06:56;;;;;;;3.55;2.83;;;;;;;;;;4988980;28;20188;-57
2022/01/16 02:09:21;;;;;;;4.35;2.70;;;;;;;;;;4991020;28;20712;-57
2022/01/16 02:11:47;;;;;;;3.75;2.88;;;;;;;;;;4991809;28;20217;-57
2022/01/16 02:35:10;;;;;;;3.60;2.75;;;;;;;;;;4988753;28;20199;-57
2022/01/16 02:37:36;;;;;;;2.47;2.28;;;;;;;;;;4979221;28;20227;-58
2022/01/16 02:40:09;;;;;;;3.67;2.60;;;;;;;;;;4978587;28;20191;-57
2022/01/16 02:42:39;;;;;;;3.50;3.10;;;;;;;;;;5002831;28;20953;-58
2022/01/16 02:45:06;;;;;;;3.25;2.60;;;;;;;;;;4995412;28;20175;-58
2022/01/16 02:47:31;;;;;;;3.80;2.78;;;;;;;;;;5000800;28;20176;-56
2022/01/16 02:49:59;;;;;;;3.53;2.90;;;;;;;;;;4996907;28;20202;-56
2022/01/16 02:52:24;;;;;;;4.10;2.60;;;;;;;;;;4999866;28;20179;-56
2022/01/16 02:54:50;;;;;;;3.30;2.75;;;;;;;;;;4997274;28;20257;-56
2022/01/16 02:57:17;;;;;;;3.17;2.95;;;;;;;;;;4989719;28;20873;-56
2022/01/16 02:59:53;;;;;;;3.67;2.67;;;;;;;;;;4977118;28;20190;-57
2022/01/16 03:02:19;;;;;;;3.00;2.70;;;;;;;;;;4998706;28;21004;-57
2022/01/16 03:04:44;;;;;;;3.60;2.85;;;;;;;;;;5003839;28;20668;-57
2022/01/16 03:07:10;;;;;;;4.82;3.72;;;;;;;;;;4998046;28;20199;-57
2022/01/16 03:10:03;;;;;;;5.07;3.58;;;;;;;;;;5000456;28;20645;-57
2022/01/16 03:12:29;;;;;;;3.90;2.80;;;;;;;;;;4990488;28;20739;-57
2022/01/16 03:14:54;;;;;;;3.60;2.75;;;;;;;;;;4996864;28;20270;-58
2022/01/16 03:17:24;;;;;;;4.32;3.17;;;;;;;;;;4997767;28;20583;-57
2022/01/16 03:22:33;;;;;;;51.80;22.58;;;;;;;;;;4997739;28;20928;-57
2022/01/16 03:24:59;;;;;;;20.20;10.40;;;;;;;;;;4996572;28;20179;-56
2022/01/16 03:27:24;;;;;;;11.63;6.18;;;;;;;;;;5021774;28;20612;-57
2022/01/16 03:29:52;;;;;;;3.05;2.80;;;;;;;;;;4997721;28;20237;-56
2022/01/16 03:32:20;;;;;;;3.55;3.03;;;;;;;;;;5001422;28;20186;-57
2022/01/16 03:34:46;;;;;;;4.80;3.75;;;;;;;;;;5006359;28;20187;-57
2022/01/16 03:37:11;;;;;;;6.93;5.47;;;;;;;;;;4996458;28;20734;-56
2022/01/16 03:39:37;;;;;;;3.97;3.13;;;;;;;;;;4989084;28;20266;-57
2022/01/16 03:42:02;;;;;;;3.60;2.80;;;;;;;;;;4976860;28;20724;-56
2022/01/16 03:44:28;;;;;;;2.85;2.58;;;;;;;;;;4978439;28;20709;-57
2022/01/16 03:46:53;;;;;;;2.67;2.45;;;;;;;;;;4996581;28;20304;-56
2022/01/16 03:49:20;;;;;;;4.45;2.65;;;;;;;;;;4997987;28;20203;-57
2022/01/16 03:51:46;;;;;;;3.42;2.30;;;;;;;;;;4996839;28;20641;-56
2022/01/16 03:54:13;;;;;;;3.10;2.80;;;;;;;;;;4998153;28;20205;-57
2022/01/16 03:56:38;;;;;;;4.00;2.40;;;;;;;;;;4991075;28;20302;-56
2022/01/16 03:59:04;;;;;;;5.32;2.50;;;;;;;;;;4997409;28;20258;-57
2022/01/16 04:01:29;;;;;;;4.22;2.97;;;;;;;;;;4985549;28;20190;-56
2022/01/16 04:03:55;;;;;;;2.97;2.78;;;;;;;;;;4977231;28;20238;-56
2022/01/16 04:06:20;;;;;;;3.38;2.50;;;;;;;;;;4998060;28;21116;-57
2022/01/16 04:08:50;;;;;;;3.67;2.67;;;;;;;;;;5002211;28;20195;-57
2022/01/16 04:11:15;;;;;;;4.97;2.88;;;;;;;;;;4995484;28;20198;-57
2022/01/16 04:13:52;;;;;;;3.17;2.88;;;;;;;;;;5005047;28;20183;-57
2022/01/16 04:16:18;;;;;;;3.25;2.60;;;;;;;;;;4994871;28;20277;-56
2022/01/16 04:18:44;;;;;;;3.15;2.83;;;;;;;;;;4997447;28;20205;-57
2022/01/16 04:21:09;;;;;;;3.17;2.90;;;;;;;;;;4998474;28;20179;-56
2022/01/16 04:23:35;;;;;;;2.95;2.67;;;;;;;;;;4995513;28;20213;-56
2022/01/16 04:26:00;;;;;;;2.55;2.33;;;;;;;;;;4997170;28;20183;-57
2022/01/16 04:28:25;;;;;;;2.97;2.63;;;;;;;;;;5003597;28;20580;-56
2022/01/16 04:30:51;;;;;;;3.28;2.50;;;;;;;;;;5005226;28;20225;-56
2022/01/16 04:33:16;;;;;;;5.97;2.58;;;;;;;;;;4996525;28;20346;-57
2022/01/16 04:35:42;;;;;;;5.15;2.50;;;;;;;;;;4998859;28;20278;-57
2022/01/16 04:38:07;;;;;;;2.85;2.50;;;;;;;;;;4998850;28;20191;-57
2022/01/16 04:40:41;;;;;;;2.58;2.38;;;;;;;;;;4990505;28;20179;-56
2022/01/16 04:45:50;;;;;;;3.65;2.60;;;;;;;;;;4998318;28;20317;-56
2022/01/16 04:48:16;;;;;;;3.50;2.70;;;;;;;;;;5001767;28;20206;-57
2022/01/16 04:50:41;;;;;;;3.15;2.40;;;;;;;;;;4994464;28;20196;-56
2022/01/16 04:53:06;;;;;;;3.45;3.15;;;;;;;;;;5002901;28;20589;-56
2022/01/16 04:55:31;;;;;;;3.20;2.90;;;;;;;;;;4996014;28;20238;-56
2022/01/16 04:57:57;;;;;;;5.03;2.95;;;;;;;;;;4994002;28;20546;-56
2022/01/16 05:00:22;;;;;;;3.30;2.97;;;;;;;;;;5009684;28;20171;-56
2022/01/16 05:02:47;;;;;;;3.78;3.38;;;;;;;;;;5001767;28;20187;-56
2022/01/16 05:05:13;;;;;;;4.53;3.65;;;;;;;;;;4980966;28;20180;-57
2022/01/16 05:07:38;;;;;;;3.15;2.70;;;;;;;;;;4980040;28;20179;-57
2022/01/16 05:10:05;;;;;;;4.32;3.53;;;;;;;;;;4985659;28;20183;-56
2022/01/16 05:12:36;;;;;;;3.25;2.47;;;;;;;;;;4998079;28;20183;-56
2022/01/16 05:17:46;;;;;;;3.20;2.90;;;;;;;;;;5000234;28;20687;-57
2022/01/16 05:20:12;;;;;;;3.78;2.90;;;;;;;;;;5007360;28;20187;-58
2022/01/16 05:22:37;;;;;;;3.65;2.65;;;;;;;;;;4995455;28;20992;-58
2022/01/16 05:25:04;;;;;;;3.00;2.50;;;;;;;;;;4994691;28;20270;-58
2022/01/16 05:27:29;;;;;;;2.78;2.50;;;;;;;;;;4998820;28;20186;-58
2022/01/16 05:29:54;;;;;;;3.28;2.80;;;;;;;;;;5000735;28;20186;-58
2022/01/16 05:32:19;;;;;;;3.15;2.20;;;;;;;;;;4999218;28;20184;-57
2022/01/16 05:34:45;;;;;;;3.75;2.60;;;;;;;;;;4999428;28;20575;-57
2022/01/16 05:37:10;;;;;;;3.60;3.10;;;;;;;;;;5002922;28;20294;-57
2022/01/16 05:39:35;;;;;;;3.67;2.47;;;;;;;;;;5003819;28;20195;-58
2022/01/16 05:42:01;;;;;;;3.92;2.60;;;;;;;;;;5003656;28;20175;-58
2022/01/16 05:44:26;;;;;;;9.00;4.90;;;;;;;;;;4996606;28;20214;-57
2022/01/16 05:46:51;;;;;;;2.70;2.50;;;;;;;;;;4995298;28;20641;-58
2022/01/16 05:49:17;;;;;;;5.25;3.10;;;;;;;;;;4998775;28;20759;-57
2022/01/16 05:51:46;;;;;;;3.63;2.72;;;;;;;;;;4997554;28;20215;-57
2022/01/16 05:54:11;;;;;;;2.88;2.63;;;;;;;;;;4995185;28;20210;-57
2022/01/16 05:56:36;;;;;;;3.10;2.90;;;;;;;;;;4995807;28;20200;-57
2022/01/16 05:59:02;;;;;;;2.90;2.70;;;;;;;;;;5005371;28;20614;-57
2022/01/16 06:01:27;;;;;;;4.35;3.05;;;;;;;;;;4994394;28;20187;-57
2022/01/16 06:03:52;;;;;;;3.80;2.90;;;;;;;;;;5006976;28;20187;-57
2022/01/16 06:06:17;;;;;;;3.47;3.17;;;;;;;;;;5006751;28;20626;-58
2022/01/16 06:08:43;;;;;;;4.35;3.13;;;;;;;;;;4997190;28;20660;-57
2022/01/16 06:11:08;;;;;;;3.45;3.15;;;;;;;;;;4999558;28;20189;-58
2022/01/16 06:13:33;;;;;;;3.72;3.10;;;;;;;;;;4998577;28;20198;-57
2022/01/16 06:15:59;;;;;;;3.35;3.03;;;;;;;;;;5006165;28;20207;-57
2022/01/16 06:18:24;;;;;;;3.60;2.80;;;;;;;;;;5004543;28;20206;-57
2022/01/16 06:20:50;;;;;;;2.78;2.47;;;;;;;;;;5002358;28;20187;-57
2022/01/16 06:23:16;;;;;;;11.68;7.80;;;;;;;;;;5002332;28;20242;-57
2022/01/16 06:25:41;;;;;;;4.95;3.67;;;;;;;;;;4998308;28;20246;-57
2022/01/16 06:28:06;;;;;;;6.47;4.43;;;;;;;;;;4987601;28;20187;-57
2022/01/16 06:30:32;;;;;;;5.72;3.53;;;;;;;;;;4978242;28;20187;-58
2022/01/16 06:32:57;;;;;;;3.90;3.30;;;;;;;;;;4980119;28;20274;-57
2022/01/16 06:35:24;;;;;;;5.57;3.60;;;;;;;;;;5003252;28;20227;-57
2022/01/16 06:37:50;;;;;;;3.45;3.15;;;;;;;;;;5005185;28;20274;-57
2022/01/16 06:40:15;;;;;;;3.78;2.95;;;;;;;;;;4992285;28;20254;-57
2022/01/16 06:42:42;;;;;;;14.38;9.55;;;;;;;;;;5003941;28;20671;-57
2022/01/16 06:45:08;;;;;;;6.72;4.05;;;;;;;;;;5008095;28;20635;-57
2022/01/16 06:47:33;;;;;;;5.68;3.58;;;;;;;;;;4992811;28;20276;-58
2022/01/16 06:49:59;;;;;;;4.88;3.40;;;;;;;;;;4998794;28;20372;-58
2022/01/16 06:52:24;;;;;;;5.60;4.70;;;;;;;;;;4997677;28;20222;-58
2022/01/16 06:54:49;;;;;;;4.57;4.03;;;;;;;;;;5001878;28;20203;-57
2022/01/16 06:57:14;;;;;;;4.22;3.67;;;;;;;;;;5005062;28;20203;-57
2022/01/16 06:59:40;;;;;;;4.47;3.05;;;;;;;;;;5002385;28;20268;-57
2022/01/16 07:02:05;;;;;;;4.50;3.70;;;;;;;;;;4999089;28;20179;-58
2022/01/16 07:04:31;;;;;;;5.07;4.28;;;;;;;;;;4997179;28;20274;-57
2022/01/16 07:06:56;;;;;;;3.83;3.25;;;;;;;;;;4996070;28;20195;-58
2022/01/16 07:09:21;;;;;;;3.58;3.20;;;;;;;;;;4988839;28;20288;-57
2022/01/16 07:11:47;;;;;;;5.10;3.00;;;;;;;;;;4976660;28;20669;-57
2022/01/16 07:14:12;;;;;;;4.63;3.40;;;;;;;;;;4997358;28;20171;-58
2022/01/16 07:16:37;;;;;;;4.63;3.47;;;;;;;;;;5001595;28;20689;-57
2022/01/16 07:19:02;;;;;;;5.50;3.95;;;;;;;;;;5001506;28;20171;-57
2022/01/16 07:21:28;;;;;;;4.68;3.60;;;;;;;;;;4997107;28;20768;-58
2022/01/16 07:23:53;;;;;;;18.85;10.57;;;;;;;;;;4992327;28;20179;-58
2022/01/16 07:26:19;;;;;;;136.70;56.45;;;;;;;;;;5005311;28;20190;-56
2022/01/16 07:28:44;;;;;;;55.47;27.10;;;;;;;;;;4991361;28;20216;-57
2022/01/16 07:31:10;;;;;;;50.72;28.52;;;;;;;;;;4995999;28;20178;-56
2022/01/16 07:33:35;;;;;;;51.65;23.88;;;;;;;;;;4996465;28;20204;-56
2022/01/16 07:36:01;;;;;;;29.02;19.10;;;;;;;;;;4998573;28;20187;-57
2022/01/16 07:38:26;;;;;;;31.05;17.95;;;;;;;;;;5005533;28;20199;-57
2022/01/16 07:40:51;;;;;;;23.58;15.23;;;;;;;;;;5000987;28;20183;-57
2022/01/16 07:43:17;;;;;;;27.13;15.90;;;;;;;;;;4998469;28;20566;-57
2022/01/16 07:45:42;;;;;;;25.88;13.73;;;;;;;;;;4997205;28;20237;-57
2022/01/16 07:48:07;;;;;;;29.77;14.98;;;;;;;;;;4993454;28;20178;-57
2022/01/16 07:50:33;;;;;;;29.67;14.40;;;;;;;;;;4994400;28;20523;-57
2022/01/16 07:52:58;;;;;;;29.60;13.82;;;;;;;;;;4979908;28;20196;-57
2022/01/16 07:55:26;;;;;;;27.70;14.63;;;;;;;;;;4977592;28;20730;-57
2022/01/16 07:57:52;;;;;;;28.92;13.50;;;;;;;;;;5000891;28;20195;-57
2022/01/16 08:00:17;;;;;;;19.13;12.27;;;;;;;;;;5002289;28;20278;-57
2022/01/16 08:02:43;;;;;;;21.90;13.20;;;;;;;;;;4989869;28;20200;-57
2022/01/16 08:05:08;;;;;;;28.27;17.02;;;;;;;;;;4997241;28;20187;-57
2022/01/16 08:07:33;;;;;;;26.60;14.35;;;;;;;;;;4993221;28;20187;-58
2022/01/16 08:09:59;;;;;;;32.78;16.80;;;;;;;;;;4997857;28;21018;-58
2022/01/16 08:12:24;;;;;;;18.90;11.85;;;;;;;;;;4992432;28;20186;-57
2022/01/16 08:14:49;;;;;;;19.92;11.82;;;;;;;;;;4995274;28;20187;-57
2022/01/16 08:17:14;;;;;;;27.27;13.75;;;;;;;;;;4997136;28;20736;-58
2022/01/16 08:19:39;;;;;;;26.17;14.65;;;;;;;;;;5002435;28;20760;-57
2022/01/16 08:22:05;;;;;;;19.33;12.40;;;;;;;;;;5000318;28;20179;-57
2022/01/16 08:24:30;;;;;;;22.00;12.32;;;;;;;;;;5006801;28;20171;-57
2022/01/16 08:26:55;;;;;;;27.92;12.77;;;;;;;;;;5001448;28;20183;-57
2022/01/16 08:29:21;;;;;;;17.42;9.88;;;;;;;;;;5009965;28;20189;-57
2022/01/16 08:31:46;;;;;;;13.05;8.68;;;;;;;;;;5005077;28;20294;-57
2022/01/16 08:34:11;;;;;;;19.70;11.30;;;;;;;;;;4999293;28;20194;-57
2022/01/16 08:36:36;;;;;;;21.35;11.68;;;;;;;;;;4999309;28;20203;-57
2022/01/16 08:39:02;;;;;;;22.42;11.80;;;;;;;;;;5001225;28;20266;-57
2022/01/16 08:41:28;;;;;;;19.08;10.48;;;;;;;;;;4992859;28;20175;-57
2022/01/16 08:43:53;;;;;;;16.27;11.48;;;;;;;;;;4998636;28;20179;-56
2022/01/16 08:46:19;;;;;;;19.45;10.65;;;;;;;;;;4999182;28;20191;-57
2022/01/16 08:48:44;;;;;;;20.77;11.02;;;;;;;;;;5004368;28;20183;-57
2022/01/16 08:51:09;;;;;;;20.73;12.70;;;;;;;;;;5008187;28;20186;-57
2022/01/16 08:53:35;;;;;;;8.57;6.03;;;;;;;;;;4999509;28;20224;-57
2022/01/16 08:56:00;;;;;;;6.05;4.38;;;;;;;;;;4984891;28;20204;-57
2022/01/16 08:58:26;;;;;;;5.68;3.55;;;;;;;;;;4980391;28;20203;-57
2022/01/16 09:00:51;;;;;;;13.88;9.80;;;;;;;;;;4984106;28;20187;-57
2022/01/16 09:03:18;;;;;;;40.38;20.05;;;;;;;;;;4995595;28;20535;-57
2022/01/16 09:05:43;;;;;;;24.15;11.43;;;;;;;;;;4994649;28;20532;-56
2022/01/16 09:08:08;;;;;;;32.65;15.75;;;;;;;;;;4994367;28;20676;-57
2022/01/16 09:10:34;;;;;;;35.60;16.17;;;;;;;;;;4997866;28;20645;-57
2022/01/16 09:12:59;;;;;;;20.80;12.35;;;;;;;;;;5002153;28;20190;-57
2022/01/16 09:15:24;;;;;;;19.65;12.32;;;;;;;;;;5000127;28;20857;-57
2022/01/16 09:17:49;;;;;;;15.43;12.23;;;;;;;;;;4978787;28;20218;-57
2022/01/16 09:20:15;;;;;;;17.48;12.75;;;;;;;;;;4980088;28;20179;-57
2022/01/16 09:22:44;;;;;;;11.23;9.48;;;;;;;;;;4990878;28;20195;-57
2022/01/16 09:25:10;;;;;;;11.10;9.90;;;;;;;;;;5004423;28;20323;-58
2022/01/16 09:27:36;;;;;;;9.93;7.75;;;;;;;;;;4998467;28;20631;-58
2022/01/16 09:30:01;;;;;;;14.77;9.68;;;;;;;;;;5007273;28;20211;-57
2022/01/16 09:32:26;;;;;;;11.05;9.02;;;;;;;;;;5004689;28;20183;-57
2022/01/16 09:34:51;;;;;;;12.25;8.43;;;;;;;;;;4994559;28;20248;-58
2022/01/16 09:37:17;;;;;;;14.68;9.52;;;;;;;;;;4999078;28;20217;-58
2022/01/16 09:39:42;;;;;;;12.07;9.20;;;;;;;;;;4998267;28;20210;-57
2022/01/16 09:42:08;;;;;;;16.50;9.80;;;;;;;;;;4999944;28;20191;-57
2022/01/16 09:44:36;;;;;;;20.48;11.88;;;;;;;;;;5007998;28;20661;-57
2022/01/16 09:47:02;;;;;;;23.60;13.05;;;;;;;;;;4993567;28;20180;-58
2022/01/16 09:49:27;;;;;;;18.60;11.07;;;;;;;;;;5000636;28;20289;-58
2022/01/16 09:51:52;;;;;;;32.10;16.95;;;;;;;;;;5007098;28;20664;-58
2022/01/16 09:54:19;;;;;;;26.10;14.88;;;;;;;;;;4995474;28;20224;-58
2022/01/16 09:56:45;;;;;;;31.77;14.68;;;;;;;;;;5003834;28;20199;-58
2022/01/16 09:59:10;;;;;;;33.85;15.43;;;;;;;;;;4981475;28;20180;-58
2022/01/16 10:01:35;;;;;;;61.42;22.85;;;;;;;;;;4998137;28;20187;-57
2022/01/16 10:04:00;;;;;;;34.67;14.98;;;;;;;;;;5002237;28;20945;-58
2022/01/16 10:06:26;;;;;;;16.25;8.68;;;;;;;;;;5004395;28;20233;-57
2022/01/16 10:08:54;;;;;;;11.10;6.95;;;;;;;;;;5007918;28;20277;-57
2022/01/16 10:11:22;;;;;;;18.08;9.27;;;;;;;;;;4996805;28;20188;-57
2022/01/16 10:14:13;;;;;;;21.73;11.70;;;;;;;;;;5004986;28;20274;-58
2022/01/16 10:16:39;;;;;;;34.97;13.45;;;;;;;;;;4998953;28;20679;-57
2022/01/16 10:19:17;;;;;;;20.58;10.68;;;;;;;;;;5005703;28;20186;-58
2022/01/16 10:21:43;;;;;;;24.95;11.82;;;;;;;;;;4997175;28;20201;-57
2022/01/16 10:24:21;;;;;;;11.13;7.38;;;;;;;;;;4999463;28;20266;-57
2022/01/16 10:26:46;;;;;;;10.02;6.22;;;;;;;;;;5004098;28;20187;-57
2022/01/16 10:29:19;;;;;;;8.70;6.25;;;;;;;;;;4988475;28;20207;-57
2022/01/16 10:31:44;;;;;;;38.47;17.40;;;;;;;;;;4998512;28;20188;-56
2022/01/16 10:34:23;;;;;;;17.65;11.48;;;;;;;;;;5005480;28;20250;-57
2022/01/16 10:36:49;;;;;;;22.63;12.65;;;;;;;;;;4997225;28;20285;-57
2022/01/16 10:39:14;;;;;;;26.38;16.05;;;;;;;;;;4988722;28;20393;-57
2022/01/16 10:41:39;;;;;;;97.82;33.05;;;;;;;;;;4978448;28;20723;-58
2022/01/16 10:44:24;;;;;;;18.20;10.20;;;;;;;;;;4977919;28;20682;-57
2022/01/16 10:46:49;;;;;;;12.18;7.82;;;;;;;;;;4996020;28;20187;-57
2022/01/16 10:49:15;;;;;;;35.72;20.30;;;;;;;;;;4996695;28;20202;-57
2022/01/16 10:51:41;;;;;;;49.47;25.35;;;;;;;;;;5001834;28;20188;-58
2022/01/16 10:54:25;;;;;;;18.38;12.00;;;;;;;;;;5002681;28;20211;-58
2022/01/16 10:56:50;;;;;;;13.38;9.35;;;;;;;;;;5000273;28;20202;-58
2022/01/16 10:59:22;;;;;;;10.65;7.35;;;;;;;;;;4996051;28;20187;-58
2022/01/16 11:02:06;;;;;;;12.68;9.20;;;;;;;;;;4992050;28;20273;-58
2022/01/16 11:04:31;;;;;;;10.10;7.38;;;;;;;;;;4997515;28;20186;-57
2022/01/16 11:07:03;;;;;;;14.20;9.07;;;;;;;;;;4999927;28;20190;-58
2022/01/16 11:09:29;;;;;;;12.27;8.75;;;;;;;;;;4992526;28;20208;-58
2022/01/16 11:11:59;;;;;;;16.23;10.75;;;;;;;;;;4994694;28;20730;-57
2022/01/16 11:14:24;;;;;;;11.60;8.98;;;;;;;;;;4996566;28;20217;-57
2022/01/16 11:16:50;;;;;;;13.48;8.57;;;;;;;;;;4993082;28;20688;-57
2022/01/16 11:19:15;;;;;;;9.82;7.30;;;;;;;;;;5003063;28;20184;-56
2022/01/16 11:21:43;;;;;;;11.98;8.60;;;;;;;;;;5002727;28;20566;-57
2022/01/16 11:26:37;;;;;;;17.65;9.90;;;;;;;;;;4997759;28;20400;-57
2022/01/16 11:29:02;;;;;;;13.52;9.85;;;;;;;;;;4996878;28;20716;-57
2022/01/16 11:31:29;;;;;;;16.35;10.43;;;;;;;;;;5002090;28;20286;-57
2022/01/16 11:33:54;;;;;;;16.95;11.27;;;;;;;;;;4991062;28;20217;-57
2022/01/16 11:36:19;;;;;;;22.77;13.43;;;;;;;;;;4993257;28;20239;-58
2022/01/16 11:38:53;;;;;;;16.35;9.52;;;;;;;;;;4994956;28;20222;-56
2022/01/16 11:41:23;;;;;;;14.70;10.57;;;;;;;;;;5002552;28;20577;-57
2022/01/16 11:43:50;;;;;;;10.82;7.57;;;;;;;;;;4987274;28;20246;-57
2022/01/16 11:46:16;;;;;;;9.57;7.00;;;;;;;;;;4977206;28;20279;-57
2022/01/16 11:48:46;;;;;;;11.63;7.93;;;;;;;;;;4998887;28;20205;-57
2022/01/16 11:51:30;;;;;;;10.30;7.80;;;;;;;;;;4989056;28;20274;-57
2022/01/16 11:53:58;;;;;;;13.82;8.55;;;;;;;;;;5000938;28;20254;-58
2022/01/16 11:56:41;;;;;;;12.65;7.57;;;;;;;;;;5010857;28;20290;-57
2022/01/16 11:59:19;;;;;;;11.63;7.72;;;;;;;;;;5005550;28;20182;-57
2022/01/16 12:01:50;;;;;;;11.18;7.03;;;;;;;;;;4998015;28;20262;-58
2022/01/16 12:04:28;;;;;;;13.45;8.90;;;;;;;;;;5001458;28;20237;-57
2022/01/16 12:06:53;;;;;;;18.77;9.70;;;;;;;;;;4999958;28;20782;-58
2022/01/16 12:12:12;;;;;;;13.35;8.70;;;;;;;;;;4996130;28;20283;-58
2022/01/16 12:14:56;;;;;;;16.33;10.68;;;;;;;;;;5002851;28;20681;-58
2022/01/16 12:17:41;;;;;;;17.17;11.05;;;;;;;;;;5003544;28;20206;-56
2022/01/16 12:20:09;;;;;;;14.40;9.15;;;;;;;;;;5006558;28;20183;-57
2022/01/16 12:22:52;;;;;;;14.63;9.50;;;;;;;;;;5003824;28;20240;-57
2022/01/16 12:25:36;;;;;;;17.00;11.10;;;;;;;;;;5002683;28;20163;-57
2022/01/16 12:28:04;;;;;;;15.20;10.27;;;;;;;;;;4999585;28;20194;-57
2022/01/16 12:30:33;;;;;;;14.98;8.90;;;;;;;;;;5001897;28;20187;-57
2022/01/16 12:33:03;;;;;;;11.38;8.27;;;;;;;;;;5001987;28;20183;-57
2022/01/16 12:35:40;;;;;;;13.52;8.98;;;;;;;;;;4997913;28;20234;-57
2022/01/16 12:38:10;;;;;;;11.95;8.35;;;;;;;;;;4996519;28;20665;-57
2022/01/16 12:40:35;;;;;;;13.30;8.40;;;;;;;;;;5003132;28;20190;-56
2022/01/16 12:43:02;;;;;;;11.73;8.45;;;;;;;;;;4992273;28;20180;-58
2022/01/16 12:45:29;;;;;;;13.43;9.82;;;;;;;;;;5000176;28;20310;-56
2022/01/16 12:47:56;;;;;;;12.52;8.65;;;;;;;;;;4999833;28;20276;-57
2022/01/16 12:50:21;;;;;;;10.93;8.30;;;;;;;;;;4999982;28;20249;-57
2022/01/16 12:52:47;;;;;;;11.85;7.93;;;;;;;;;;5001894;28;20262;-57
2022/01/16 12:55:13;;;;;;;12.70;9.15;;;;;;;;;;4995395;28;20172;-57
2022/01/16 12:57:38;;;;;;;12.32;7.78;;;;;;;;;;5004314;28;20338;-57
2022/01/16 13:00:10;;;;;;;13.77;7.60;;;;;;;;;;4994979;28;20624;-61
2022/01/16 13:02:36;;;;;;;12.98;9.35;;;;;;;;;;4999278;28;20179;-58
2022/01/16 13:05:02;;;;;;;13.63;9.65;;;;;;;;;;4990018;28;20237;-57
2022/01/16 13:07:27;;;;;;;11.88;9.65;;;;;;;;;;4994073;28;20198;-58
2022/01/16 13:09:53;;;;;;;14.02;10.35;;;;;;;;;;4999035;28;20175;-58
2022/01/16 13:12:18;;;;;;;7.78;6.97;;;;;;;;;;5000591;28;20722;-57
2022/01/16 13:14:43;;;;;;;10.93;8.05;;;;;;;;;;5003481;28;20187;-57
2022/01/16 13:17:10;;;;;;;11.38;7.53;;;;;;;;;;5009063;28;20253;-57
2022/01/16 13:19:50;;;;;;;8.98;7.00;;;;;;;;;;5003715;28;20172;-57
2022/01/16 13:22:16;;;;;;;8.70;7.28;;;;;;;;;;5004602;28;20178;-58
2022/01/16 13:24:58;;;;;;;9.13;6.90;;;;;;;;;;4993939;28;20188;-57
2022/01/16 13:27:24;;;;;;;10.25;6.72;;;;;;;;;;5004193;28;20652;-58
2022/01/16 13:29:49;;;;;;;10.27;6.38;;;;;;;;;;4980706;28;20246;-58
2022/01/16 13:32:15;;;;;;;10.40;6.25;;;;;;;;;;4979928;28;20182;-57
2022/01/16 13:34:53;;;;;;;10.68;6.80;;;;;;;;;;5000423;28;20191;-56
2022/01/16 13:37:21;;;;;;;10.55;6.95;;;;;;;;;;4996620;28;20233;-57
2022/01/16 13:39:50;;;;;;;9.95;6.97;;;;;;;;;;4996112;28;20175;-57
2022/01/16 13:42:24;;;;;;;7.88;6.55;;;;;;;;;;5001347;28;20728;-57
2022/01/16 13:44:49;;;;;;;18.42;7.22;;;;;;;;;;4995835;28;20202;-57
2022/01/16 13:47:21;;;;;;;11.55;6.75;;;;;;;;;;5006197;28;20657;-57
2022/01/16 13:49:48;;;;;;;10.20;7.32;;;;;;;;;;5002785;28;20209;-57
2022/01/16 13:52:23;;;;;;;9.88;7.50;;;;;;;;;;4998367;28;20210;-56
2022/01/16 13:54:48;;;;;;;12.88;7.18;;;;;;;;;;5000073;28;20202;-57
2022/01/16 13:57:28;;;;;;;14.25;7.40;;;;;;;;;;5004362;28;20476;-57
2022/01/16 14:00:01;;;;;;;8.90;7.07;;;;;;;;;;4999651;28;20202;-57
2022/01/16 14:02:26;;;;;;;13.07;8.80;;;;;;;;;;5004749;28;20186;-57
2022/01/16 14:04:52;;;;;;;10.48;6.90;;;;;;;;;;4998197;28;20671;-58
2022/01/16 14:07:20;;;;;;;12.15;7.68;;;;;;;;;;4996646;28;20187;-57
2022/01/16 14:09:46;;;;;;;11.43;7.38;;;;;;;;;;4995188;28;20191;-58
2022/01/16 14:12:11;;;;;;;9.65;7.10;;;;;;;;;;4997990;28;20183;-57
2022/01/16 14:14:38;;;;;;;9.60;6.80;;;;;;;;;;4998560;28;20175;-57
2022/01/16 14:17:27;;;;;;;10.52;7.20;;;;;;;;;;5000072;28;20205;-57
2022/01/16 14:22:15;;;;;;;12.07;7.90;;;;;;;;;;5003770;28;20202;-56
2022/01/16 14:24:58;;;;;;;12.30;7.90;;;;;;;;;;5004566;28;20703;-57
2022/01/16 14:27:23;;;;;;;11.80;8.65;;;;;;;;;;4998015;28;20599;-57
2022/01/16 14:29:50;;;;;;;14.10;8.80;;;;;;;;;;4995762;28;20267;-57
2022/01/16 14:32:16;;;;;;;12.55;8.43;;;;;;;;;;4982441;28;20808;-57
2022/01/16 14:34:42;;;;;;;14.93;10.43;;;;;;;;;;4978489;28;20185;-57
2022/01/16 14:37:08;;;;;;;16.33;9.18;;;;;;;;;;4980772;28;20211;-57
2022/01/16 14:39:34;;;;;;;15.10;9.50;;;;;;;;;;4991571;28;20180;-57
2022/01/16 14:41:59;;;;;;;15.30;9.45;;;;;;;;;;5004415;28;20175;-57
2022/01/16 14:44:26;;;;;;;11.82;7.95;;;;;;;;;;5004360;28;20257;-56
2022/01/16 14:46:52;;;;;;;12.63;8.63;;;;;;;;;;5002851;28;20683;-57
2022/01/16 14:49:17;;;;;;;11.13;7.55;;;;;;;;;;4993407;28;20535;-58
2022/01/16 14:51:43;;;;;;;11.65;8.18;;;;;;;;;;5002147;28;20175;-57
2022/01/16 14:54:08;;;;;;;15.18;9.00;;;;;;;;;;4978368;28;20699;-59
2022/01/16 14:56:33;;;;;;;21.73;12.90;;;;;;;;;;4977976;28;20921;-58
2022/01/16 14:58:59;;;;;;;19.02;10.48;;;;;;;;;;4988118;28;21019;-58
2022/01/16 15:01:24;;;;;;;17.17;9.05;;;;;;;;;;4999960;28;20749;-58
2022/01/16 15:03:49;;;;;;;17.98;12.27;;;;;;;;;;5027310;28;20341;-58
2022/01/16 15:06:15;;;;;;;18.38;10.70;;;;;;;;;;5003377;28;20203;-58
2022/01/16 15:08:41;;;;;;;15.85;10.43;;;;;;;;;;4999601;28;20195;-57
2022/01/16 15:11:07;;;;;;;22.98;13.52;;;;;;;;;;4996417;28;20179;-58
2022/01/16 15:13:32;;;;;;;12.10;8.35;;;;;;;;;;4994541;28;20179;-58
2022/01/16 15:15:57;;;;;;;16.92;10.57;;;;;;;;;;4976792;28;20174;-56
2022/01/16 15:18:23;;;;;;;19.02;12.27;;;;;;;;;;4997849;28;20238;-59
2022/01/16 15:20:51;;;;;;;14.65;9.40;;;;;;;;;;4999032;28;20492;-57
2022/01/16 15:23:17;;;;;;;18.15;10.63;;;;;;;;;;4999937;28;20183;-58